Time;durP1;ratioP1;P1;durP2;ratioP2;P2;SDS_P1;SDS_P2;PMS_P1;PMS_P2;Temp;Humidity;BMP_temperature;BMP_pressure;BME280_temperature;BME280_humidity;BME280_pressure;Samples;Min_cycle;Max_cycle;Signal;HPM_P1;HPM_P2
2023/11/24 00:00:02;;;;;;;19.80;2.10;;;6.60;99.90;;;;;;4237908;27;20469;-78
2023/11/24 00:02:04;;;;;;;20.87;3.50;;;6.60;99.90;;;;;;4243491;27;20671;-78
2023/11/24 00:04:06;;;;;;;19.20;2.60;;;6.50;99.90;;;;;;4236745;27;20436;-78
2023/11/24 00:06:08;;;;;;;23.57;2.67;;;6.50;99.90;;;;;;4233868;27;20442;-78
2023/11/24 00:08:10;;;;;;;24.30;2.23;;;6.50;99.90;;;;;;4238377;27;21276;-77
2023/11/24 00:10:12;;;;;;;22.00;2.20;;;6.50;99.90;;;;;;4236710;27;20448;-77
2023/11/24 00:12:14;;;;;;;22.33;2.30;;;6.40;99.90;;;;;;4222758;28;20981;-76
2023/11/24 00:14:16;;;;;;;17.17;2.40;;;6.40;99.90;;;;;;4238270;27;20958;-76
2023/11/24 00:16:20;;;;;;;14.03;2.03;;;6.40;99.90;;;;;;4240455;27;20482;-76
2023/11/24 00:18:22;;;;;;;10.40;1.90;;;6.50;99.90;;;;;;4238042;27;21044;-75
2023/11/24 00:20:25;;;;;;;11.03;1.60;;;6.50;99.90;;;;;;4231402;27;20467;-76
2023/11/24 00:22:30;;;;;;;17.30;1.53;;;6.50;99.90;;;;;;4238135;27;20539;-76
2023/11/24 00:24:32;;;;;;;5.37;0.97;;;6.50;99.90;;;;;;4232805;27;20455;-76
2023/11/24 00:26:37;;;;;;;4.03;0.80;;;6.30;99.90;;;;;;4241410;27;20440;-77
2023/11/24 00:28:39;;;;;;;5.37;0.80;;;6.00;99.90;;;;;;4241904;27;20449;-76
2023/11/24 00:30:42;;;;;;;6.10;0.80;;;6.00;99.90;;;;;;4239447;27;20452;-77
2023/11/24 00:32:46;;;;;;;3.57;1.00;;;6.00;99.90;;;;;;4240878;27;20457;-78
2023/11/24 00:34:47;;;;;;;5.10;0.60;;;5.80;99.90;;;;;;4236783;27;20472;-76
2023/11/24 00:36:49;;;;;;;9.10;0.90;;;5.90;99.90;;;;;;4237339;27;20479;-77
2023/11/24 00:38:51;;;;;;;6.07;0.83;;;5.90;99.90;;;;;;4238191;27;20214;-78
2023/11/24 00:40:53;;;;;;;1.70;0.50;;;5.90;99.90;;;;;;4237972;27;20978;-78
2023/11/24 00:42:55;;;;;;;3.80;0.87;;;5.90;99.90;;;;;;4243340;27;20458;-78
2023/11/24 00:44:57;;;;;;;6.60;1.00;;;5.80;99.90;;;;;;4229027;27;20496;-78
2023/11/24 00:46:59;;;;;;;4.03;0.90;;;5.60;99.90;;;;;;4237430;27;21004;-78
2023/11/24 00:49:02;;;;;;;9.47;1.60;;;5.80;99.90;;;;;;4236124;27;20445;-78
2023/11/24 00:51:05;;;;;;;2.50;0.80;;;5.80;99.90;;;;;;4237446;27;20464;-78
2023/11/24 00:53:07;;;;;;;3.53;0.90;;;5.80;99.90;;;;;;4237445;27;20509;-79
2023/11/24 00:55:09;;;;;;;5.47;0.70;;;5.70;99.90;;;;;;4235220;27;20441;-78
2023/11/24 00:57:11;;;;;;;6.43;1.00;;;5.70;99.90;;;;;;4233763;27;20478;-78
2023/11/24 00:59:13;;;;;;;9.20;1.03;;;5.70;99.90;;;;;;4236534;27;20464;-78
2023/11/24 01:01:15;;;;;;;9.90;1.30;;;5.70;99.90;;;;;;4233429;27;20454;-78
2023/11/24 01:03:16;;;;;;;9.20;1.20;;;5.70;99.90;;;;;;4237264;27;20448;-78
2023/11/24 01:05:20;;;;;;;4.40;1.20;;;5.70;99.90;;;;;;4239600;27;20441;-79
2023/11/24 01:07:22;;;;;;;6.30;0.90;;;5.60;99.90;;;;;;4241521;27;20208;-78
2023/11/24 01:09:25;;;;;;;5.33;1.13;;;5.60;99.90;;;;;;4238033;27;20445;-78
2023/11/24 01:11:27;;;;;;;5.37;1.60;;;5.80;99.90;;;;;;4237243;27;20471;-78
2023/11/24 01:13:31;;;;;;;8.13;1.13;;;5.60;99.90;;;;;;4238513;27;20444;-78
2023/11/24 01:15:33;;;;;;;13.13;1.30;;;5.60;99.90;;;;;;4237257;27;21011;-79
2023/11/24 01:17:35;;;;;;;8.17;1.80;;;5.60;99.90;;;;;;4238549;27;20987;-79
2023/11/24 01:19:37;;;;;;;8.93;1.40;;;5.60;99.90;;;;;;4236190;27;20437;-78
2023/11/24 01:21:43;;;;;;;7.37;1.93;;;5.60;99.90;;;;;;4237952;27;20468;-79
2023/11/24 01:23:45;;;;;;;8.93;1.30;;;5.60;99.90;;;;;;4238117;27;20446;-79
2023/11/24 01:25:47;;;;;;;6.73;1.50;;;5.60;99.90;;;;;;4238836;27;20503;-79
2023/11/24 01:27:49;;;;;;;13.40;1.40;;;5.60;99.90;;;;;;4239515;27;20491;-79
2023/11/24 01:29:51;;;;;;;10.03;1.50;;;5.60;99.90;;;;;;4236951;27;20873;-79
2023/11/24 01:31:53;;;;;;;13.97;1.50;;;5.60;99.90;;;;;;4238906;27;20440;-79
2023/11/24 01:33:55;;;;;;;14.17;1.40;;;5.60;99.90;;;;;;4239843;27;20544;-79
2023/11/24 01:35:58;;;;;;;13.50;1.67;;;5.70;99.90;;;;;;4240302;27;20473;-79
2023/11/24 01:38:00;;;;;;;15.40;1.40;;;5.50;99.90;;;;;;4240712;27;20556;-79
2023/11/24 01:40:03;;;;;;;7.87;1.50;;;5.60;99.90;;;;;;4241074;27;20461;-79
2023/11/24 01:42:06;;;;;;;9.97;2.13;;;5.60;99.90;;;;;;4239095;27;20478;-80
2023/11/24 01:44:08;;;;;;;12.53;1.23;;;5.60;99.90;;;;;;4239383;27;20455;-80
2023/11/24 01:46:10;;;;;;;9.70;1.50;;;5.60;99.90;;;;;;4242462;27;20883;-79
2023/11/24 01:48:14;;;;;;;18.70;1.47;;;5.60;99.90;;;;;;4243856;27;20470;-80
2023/11/24 01:50:17;;;;;;;12.03;1.37;;;5.50;99.90;;;;;;4242180;27;20981;-80
2023/11/24 01:52:19;;;;;;;20.77;1.53;;;5.60;99.90;;;;;;4235634;27;20456;-80
2023/11/24 01:54:26;;;;;;;12.73;1.30;;;5.50;99.90;;;;;;4241089;27;20445;-79
2023/11/24 01:56:28;;;;;;;9.17;1.23;;;5.50;99.90;;;;;;4237499;27;20542;-80
2023/11/24 01:58:30;;;;;;;11.67;1.57;;;5.50;99.90;;;;;;4237426;27;20450;-80
2023/11/24 02:00:34;;;;;;;10.93;1.50;;;5.40;99.90;;;;;;4238100;27;20444;-80
2023/11/24 02:02:35;;;;;;;10.53;1.50;;;5.40;99.90;;;;;;4239663;27;20443;-80
2023/11/24 02:04:37;;;;;;;5.40;1.47;;;5.30;99.90;;;;;;4237593;27;20458;-80
2023/11/24 02:06:39;;;;;;;12.43;1.50;;;5.30;99.90;;;;;;4238882;27;20938;-79
2023/11/24 02:08:40;;;;;;;18.80;2.10;;;5.30;99.90;;;;;;4240504;27;20447;-80
2023/11/24 02:10:44;;;;;;;15.73;1.80;;;5.30;99.90;;;;;;4243053;27;20440;-79
2023/11/24 02:12:46;;;;;;;12.23;1.30;;;5.20;99.90;;;;;;4233389;27;20454;-79
2023/11/24 02:14:48;;;;;;;14.83;1.70;;;5.20;99.90;;;;;;4239639;27;20440;-79
2023/11/24 02:16:49;;;;;;;13.70;1.70;;;5.20;99.90;;;;;;4239642;27;20548;-79
2023/11/24 02:18:51;;;;;;;11.27;2.00;;;5.20;99.90;;;;;;4239431;27;20449;-79
2023/11/24 02:20:55;;;;;;;12.37;1.60;;;5.20;99.90;;;;;;4235545;27;20443;-79
2023/11/24 02:22:58;;;;;;;10.23;1.80;;;5.20;99.90;;;;;;4241200;27;20550;-80
2023/11/24 02:24:59;;;;;;;15.80;2.23;;;5.10;99.90;;;;;;4233237;27;20464;-80
2023/11/24 02:27:01;;;;;;;12.27;1.50;;;5.20;99.90;;;;;;4241472;27;20466;-80
2023/11/24 02:29:03;;;;;;;13.10;1.60;;;5.20;99.90;;;;;;4238406;27;20197;-79
2023/11/24 02:31:07;;;;;;;13.17;1.60;;;5.20;99.90;;;;;;4237015;27;21058;-80
2023/11/24 02:33:09;;;;;;;12.83;1.67;;;5.10;99.90;;;;;;4235264;27;20935;-79
2023/11/24 02:35:12;;;;;;;11.37;1.80;;;5.20;99.90;;;;;;4238996;27;20436;-79
2023/11/24 02:37:13;;;;;;;11.57;1.73;;;5.20;99.90;;;;;;4243071;27;21638;-79
2023/11/24 02:39:16;;;;;;;19.50;1.93;;;5.20;99.90;;;;;;4236635;27;20464;-79
2023/11/24 02:41:20;;;;;;;12.50;1.70;;;5.20;99.90;;;;;;4249939;27;20216;-80
2023/11/24 02:43:21;;;;;;;11.43;1.57;;;5.20;99.90;;;;;;4249774;27;20451;-80
2023/11/24 02:45:23;;;;;;;8.10;1.47;;;5.20;99.90;;;;;;4247885;27;20480;-80
2023/11/24 02:47:25;;;;;;;15.87;1.60;;;5.20;99.90;;;;;;4245633;27;20241;-80
2023/11/24 02:49:27;;;;;;;18.20;1.67;;;5.10;99.90;;;;;;4248163;27;20460;-80
2023/11/24 02:51:28;;;;;;;15.00;2.17;;;5.20;99.90;;;;;;4246260;27;20435;-80
2023/11/24 02:53:30;;;;;;;9.83;1.87;;;5.20;99.90;;;;;;4238027;27;20448;-80
2023/11/24 02:55:34;;;;;;;16.07;1.90;;;5.20;99.90;;;;;;4238553;27;20440;-80
2023/11/24 02:57:36;;;;;;;12.63;2.03;;;5.10;99.90;;;;;;4240998;28;20482;-80
2023/11/24 02:59:37;;;;;;;25.73;1.90;;;5.10;99.90;;;;;;4243194;27;20445;-80
2023/11/24 03:01:39;;;;;;;14.10;1.90;;;5.10;99.90;;;;;;4238660;27;20517;-80
2023/11/24 03:03:41;;;;;;;12.67;2.00;;;5.10;99.90;;;;;;4241606;27;20448;-80
2023/11/24 03:05:42;;;;;;;15.23;1.57;;;5.10;99.90;;;;;;4240945;28;20954;-80
2023/11/24 03:07:44;;;;;;;17.60;1.97;;;5.10;99.90;;;;;;4241469;27;20461;-80
2023/11/24 03:09:46;;;;;;;10.70;1.90;;;5.10;99.90;;;;;;4239065;28;20445;-80
2023/11/24 03:11:48;;;;;;;16.10;2.00;;;5.00;99.90;;;;;;4243888;28;20482;-80
2023/11/24 03:13:53;;;;;;;14.43;1.73;;;5.00;99.90;;;;;;4241460;27;21032;-80
2023/11/24 03:15:55;;;;;;;14.77;2.20;;;5.00;99.90;;;;;;4241415;28;20942;-81
2023/11/24 03:17:57;;;;;;;13.60;1.77;;;5.00;99.90;;;;;;4239126;28;20506;-80
2023/11/24 03:20:00;;;;;;;15.97;1.70;;;5.00;99.90;;;;;;4243217;27;21054;-80
2023/11/24 03:22:02;;;;;;;13.17;1.60;;;5.00;99.90;;;;;;4242084;28;20505;-81
2023/11/24 03:24:06;;;;;;;9.93;1.23;;;5.00;99.90;;;;;;4242126;27;20439;-80
2023/11/24 03:26:09;;;;;;;12.77;1.83;;;5.10;99.90;;;;;;4245127;27;20452;-80
2023/11/24 03:28:13;;;;;;;10.87;1.87;;;5.00;99.90;;;;;;4241735;27;20877;-80
2023/11/24 03:30:15;;;;;;;11.20;1.60;;;5.00;99.90;;;;;;4243894;27;20471;-80
2023/11/24 03:32:17;;;;;;;13.17;1.57;;;4.90;99.90;;;;;;4247622;27;20456;-80
2023/11/24 03:34:19;;;;;;;13.77;1.67;;;4.90;99.90;;;;;;4247399;27;20470;-79
2023/11/24 03:36:20;;;;;;;15.50;1.90;;;4.80;99.90;;;;;;4245954;27;20440;-80
2023/11/24 03:38:22;;;;;;;14.27;2.07;;;4.90;99.90;;;;;;4244674;27;20485;-79
2023/11/24 03:40:27;;;;;;;11.57;1.40;;;4.90;99.90;;;;;;4244865;27;20222;-80
2023/11/24 03:42:29;;;;;;;13.23;1.30;;;4.80;99.90;;;;;;4241268;27;20461;-80
2023/11/24 03:44:32;;;;;;;13.27;1.60;;;4.80;99.90;;;;;;4243278;27;20452;-79
2023/11/24 03:46:33;;;;;;;9.60;1.47;;;4.80;99.90;;;;;;4238634;27;20440;-80
2023/11/24 03:48:35;;;;;;;10.90;1.50;;;4.80;99.90;;;;;;4243401;27;20527;-80
2023/11/24 03:50:37;;;;;;;10.70;1.53;;;4.70;99.90;;;;;;4242691;27;20436;-79
2023/11/24 03:52:39;;;;;;;9.50;1.40;;;4.70;99.90;;;;;;4242090;27;20565;-79
2023/11/24 03:54:41;;;;;;;9.20;1.00;;;4.70;99.90;;;;;;4234869;27;20813;-80
2023/11/24 03:56:43;;;;;;;8.17;1.00;;;4.60;99.90;;;;;;4239581;27;20957;-79
2023/11/24 03:58:45;;;;;;;8.63;1.07;;;4.60;99.90;;;;;;4236860;27;20468;-80
2023/11/24 04:00:48;;;;;;;9.40;1.00;;;4.60;99.90;;;;;;4240774;27;20452;-79
2023/11/24 04:02:50;;;;;;;7.17;1.13;;;4.60;99.90;;;;;;4238919;27;20434;-80
2023/11/24 04:04:52;;;;;;;8.13;1.10;;;4.60;99.90;;;;;;4240316;27;20455;-80
2023/11/24 04:06:54;;;;;;;10.93;1.30;;;4.60;99.90;;;;;;4240524;27;20475;-80
2023/11/24 04:08:56;;;;;;;7.23;1.10;;;4.60;99.90;;;;;;4245915;27;20429;-80
2023/11/24 04:10:58;;;;;;;6.43;1.30;;;5.10;99.90;;;;;;4244938;27;20479;-79
2023/11/24 04:13:03;;;;;;;12.37;1.80;;;4.50;99.90;;;;;;4244205;27;20497;-80
2023/11/24 04:15:05;;;;;;;11.97;1.37;;;4.50;99.90;;;;;;4243568;27;20443;-80
2023/11/24 04:17:09;;;;;;;8.40;1.57;;;4.60;99.90;;;;;;4238177;27;20760;-79
2023/11/24 04:19:12;;;;;;;13.83;1.93;;;4.60;99.90;;;;;;4245935;27;20965;-79
2023/11/24 04:21:13;;;;;;;12.90;1.40;;;4.80;99.90;;;;;;4234439;27;20543;-80
2023/11/24 04:23:14;;;;;;;12.33;1.33;;;4.60;99.90;;;;;;4237950;27;20498;-79
2023/11/24 04:25:16;;;;;;;8.83;1.43;;;4.60;99.90;;;;;;4238603;27;21167;-79
2023/11/24 04:27:18;;;;;;;7.40;1.47;;;4.60;99.90;;;;;;4236364;27;20633;-79
2023/11/24 04:29:21;;;;;;;11.97;2.03;;;4.60;99.90;;;;;;4217426;28;20498;-80
2023/11/24 04:31:22;;;;;;;12.57;1.40;;;4.60;99.90;;;;;;4237745;27;20440;-80
2023/11/24 04:33:26;;;;;;;14.37;1.90;;;4.60;99.90;;;;;;4237758;27;20974;-80
2023/11/24 04:35:28;;;;;;;14.13;1.90;;;4.60;99.90;;;;;;4239578;27;20935;-79
2023/11/24 04:37:30;;;;;;;13.13;1.60;;;4.50;99.90;;;;;;4247363;27;20480;-79
2023/11/24 04:39:31;;;;;;;10.23;1.20;;;4.60;99.90;;;;;;4237179;27;20443;-79
2023/11/24 04:41:33;;;;;;;12.00;1.40;;;4.60;99.90;;;;;;4220237;28;20469;-79
2023/11/24 04:43:35;;;;;;;14.37;1.67;;;4.50;99.90;;;;;;4240842;27;20482;-80
2023/11/24 04:45:39;;;;;;;13.67;1.70;;;4.60;99.90;;;;;;4244190;27;20468;-80
2023/11/24 04:47:41;;;;;;;9.43;1.30;;;4.60;99.90;;;;;;4235964;27;20459;-80
2023/11/24 04:49:44;;;;;;;7.17;1.80;;;5.00;99.90;;;;;;4242623;27;20460;-79
2023/11/24 04:51:46;;;;;;;14.30;2.03;;;4.60;99.90;;;;;;4246532;27;20508;-79
2023/11/24 04:53:48;;;;;;;14.73;2.13;;;4.60;99.90;;;;;;4239898;27;20455;-79
2023/11/24 04:55:50;;;;;;;14.00;1.50;;;4.60;99.90;;;;;;4240473;27;20577;-80
2023/11/24 04:57:51;;;;;;;11.97;1.53;;;4.60;99.90;;;;;;4239630;27;20550;-79
2023/11/24 04:59:53;;;;;;;10.50;1.40;;;4.60;99.90;;;;;;4237680;27;20444;-79
2023/11/24 05:01:55;;;;;;;6.43;1.40;;;4.60;99.90;;;;;;4241892;27;20451;-79
2023/11/24 05:04:00;;;;;;;12.60;1.67;;;4.60;99.90;;;;;;4236997;27;20447;-79
2023/11/24 05:06:04;;;;;;;8.93;1.23;;;4.60;99.90;;;;;;4241216;27;20460;-79
2023/11/24 05:08:06;;;;;;;9.70;1.23;;;4.60;99.90;;;;;;4242171;27;20850;-80
2023/11/24 05:10:09;;;;;;;8.10;1.07;;;4.60;99.90;;;;;;4243191;27;20516;-80
2023/11/24 05:12:11;;;;;;;11.27;1.30;;;4.60;99.90;;;;;;4247772;27;20481;-79
2023/11/24 05:14:13;;;;;;;10.30;1.50;;;4.60;99.90;;;;;;4248009;27;20448;-78
2023/11/24 05:16:15;;;;;;;6.27;1.30;;;4.60;99.90;;;;;;4249575;27;20466;-79
2023/11/24 05:18:19;;;;;;;11.27;1.57;;;4.60;99.90;;;;;;4241460;27;20553;-79
2023/11/24 05:20:24;;;;;;;15.03;2.27;;;4.60;99.90;;;;;;4241200;27;20508;-79
2023/11/24 05:22:26;;;;;;;6.70;1.10;;;4.60;99.90;;;;;;4244252;27;20477;-78
2023/11/24 05:24:30;;;;;;;11.40;1.60;;;4.60;99.90;;;;;;4233601;27;20443;-79
2023/11/24 05:26:32;;;;;;;12.37;1.70;;;4.60;99.90;;;;;;4238612;27;20436;-79
2023/11/24 05:28:34;;;;;;;9.97;1.50;;;4.60;99.90;;;;;;4233957;27;20530;-80
2023/11/24 05:30:39;;;;;;;6.40;1.53;;;4.60;99.90;;;;;;4234482;27;20453;-79
2023/11/24 05:32:40;;;;;;;13.10;1.70;;;4.60;99.90;;;;;;4240333;27;20532;-79
2023/11/24 05:34:42;;;;;;;18.00;1.90;;;4.60;99.90;;;;;;4239497;27;20504;-80
2023/11/24 05:36:45;;;;;;;11.13;1.63;;;4.60;99.90;;;;;;4241064;27;20461;-79
2023/11/24 05:38:48;;;;;;;12.40;1.70;;;4.50;99.90;;;;;;4236768;27;20471;-79
2023/11/24 05:40:50;;;;;;;11.90;1.87;;;4.80;99.90;;;;;;4229411;27;20946;-79
2023/11/24 05:42:53;;;;;;;22.23;1.70;;;4.50;99.90;;;;;;4236873;27;20483;-79
2023/11/24 05:44:54;;;;;;;10.53;1.47;;;4.40;99.90;;;;;;4237806;27;20467;-80
2023/11/24 05:46:56;;;;;;;12.67;1.93;;;4.70;99.90;;;;;;4235597;27;20489;-80
2023/11/24 05:48:58;;;;;;;16.23;2.83;;;4.40;99.90;;;;;;4235692;27;20939;-80
2023/11/24 05:51:00;;;;;;;11.40;2.07;;;4.70;99.90;;;;;;4233051;27;20451;-80
2023/11/24 05:53:02;;;;;;;23.53;2.40;;;4.40;99.90;;;;;;4232212;27;20448;-80
2023/11/24 05:55:06;;;;;;;15.07;2.47;;;4.40;99.90;;;;;;4237687;27;20432;-80
2023/11/24 05:57:08;;;;;;;11.63;3.67;;;4.40;99.90;;;;;;4232980;27;20543;-80
2023/11/24 05:59:10;;;;;;;17.60;3.73;;;4.40;99.90;;;;;;4236535;27;20471;-80
2023/11/24 06:01:12;;;;;;;16.77;4.40;;;4.40;99.90;;;;;;4221002;28;20517;-80
2023/11/24 06:03:14;;;;;;;24.57;5.37;;;4.40;99.90;;;;;;4234621;27;20438;-80
2023/11/24 06:05:16;;;;;;;15.77;3.53;;;4.40;99.90;;;;;;4240400;27;20443;-80
2023/11/24 06:07:22;;;;;;;13.70;2.40;;;4.70;99.90;;;;;;4221583;27;20853;-80
2023/11/24 06:09:24;;;;;;;20.77;2.40;;;4.40;99.90;;;;;;4245202;27;20443;-80
2023/11/24 06:11:28;;;;;;;15.70;2.63;;;4.40;99.90;;;;;;4241569;27;20459;-80
2023/11/24 06:13:30;;;;;;;12.80;2.17;;;4.50;99.90;;;;;;4240397;27;20454;-81
2023/11/24 06:15:32;;;;;;;14.67;3.33;;;4.40;99.90;;;;;;4240418;27;20442;-80
2023/11/24 06:17:34;;;;;;;16.80;2.50;;;4.40;99.90;;;;;;4238546;27;20501;-80
2023/11/24 06:19:36;;;;;;;21.63;4.00;;;4.40;99.90;;;;;;4237278;27;20445;-80
2023/11/24 06:21:40;;;;;;;24.10;4.57;;;4.40;99.90;;;;;;4234981;27;20461;-80
2023/11/24 06:23:45;;;;;;;15.00;2.43;;;4.50;99.90;;;;;;4239791;27;20954;-80
2023/11/24 06:25:47;;;;;;;13.00;3.30;;;4.40;99.90;;;;;;4230655;28;20442;-80
2023/11/24 06:27:53;;;;;;;10.77;2.53;;;4.40;99.90;;;;;;4237180;27;20482;-80
2023/11/24 06:29:55;;;;;;;16.57;2.17;;;4.50;99.90;;;;;;4239692;27;20516;-80
2023/11/24 06:31:57;;;;;;;13.77;2.27;;;4.40;99.90;;;;;;4225223;28;20994;-80
2023/11/24 06:33:59;;;;;;;21.70;3.47;;;4.40;99.90;;;;;;4240407;27;20446;-80
2023/11/24 06:36:02;;;;;;;17.00;2.07;;;4.30;99.90;;;;;;4237748;27;20445;-83
2023/11/24 06:38:04;;;;;;;18.87;2.63;;;4.60;99.90;;;;;;4236173;27;21006;-84
2023/11/24 06:40:09;;;;;;;13.60;1.80;;;4.30;99.90;;;;;;4238345;27;20475;-82
2023/11/24 06:42:11;;;;;;;7.70;1.67;;;4.30;99.90;;;;;;4234498;27;21267;-83
2023/11/24 06:44:15;;;;;;;16.60;3.03;;;4.30;99.90;;;;;;4242884;27;20542;-82
2023/11/24 06:46:18;;;;;;;16.80;2.93;;;4.20;99.90;;;;;;4245141;27;20435;-82
2023/11/24 06:48:20;;;;;;;21.70;2.83;;;4.30;99.90;;;;;;4243797;27;20452;-82
2023/11/24 06:50:22;;;;;;;16.13;2.10;;;4.50;99.90;;;;;;4243811;27;20973;-82
2023/11/24 06:52:23;;;;;;;17.10;4.00;;;4.20;99.90;;;;;;4240738;27;20446;-82
2023/11/24 06:54:25;;;;;;;20.30;3.27;;;4.30;99.90;;;;;;4243052;27;20457;-85
2023/11/24 06:56:29;;;;;;;11.93;1.70;;;4.20;99.90;;;;;;4241506;27;20204;-85
2023/11/24 06:58:31;;;;;;;11.70;1.67;;;4.10;99.90;;;;;;4236657;27;21408;-82
2023/11/24 07:00:34;;;;;;;11.53;2.13;;;4.10;99.90;;;;;;4239461;27;20455;-82
2023/11/24 07:02:38;;;;;;;15.83;2.97;;;4.00;99.90;;;;;;4238985;27;20439;-82
2023/11/24 07:04:39;;;;;;;14.13;3.17;;;4.10;99.90;;;;;;4246358;27;20429;-80
2023/11/24 07:06:41;;;;;;;17.43;3.70;;;4.00;99.90;;;;;;4241138;27;20488;-81
2023/11/24 07:08:43;;;;;;;15.13;2.47;;;4.00;99.90;;;;;;4246692;27;20547;-81
2023/11/24 07:10:45;;;;;;;13.33;2.47;;;4.00;99.90;;;;;;4248783;27;20498;-80
2023/11/24 07:12:47;;;;;;;7.73;1.90;;;3.90;99.90;;;;;;4240094;28;20511;-81
2023/11/24 07:14:49;;;;;;;8.30;2.07;;;3.90;99.90;;;;;;4244351;27;20796;-84
2023/11/24 07:16:55;;;;;;;8.23;1.90;;;4.20;99.90;;;;;;4248054;27;20506;-81
2023/11/24 07:18:58;;;;;;;12.70;2.47;;;3.90;99.90;;;;;;4238504;27;20878;-80
2023/11/24 07:21:00;;;;;;;12.60;2.30;;;3.80;99.90;;;;;;4242618;27;20526;-81
2023/11/24 07:23:01;;;;;;;9.27;1.73;;;3.80;99.90;;;;;;4243706;27;20861;-80
2023/11/24 07:25:03;;;;;;;12.90;1.93;;;3.80;99.90;;;;;;4248996;27;20519;-81
2023/11/24 07:27:05;;;;;;;14.90;2.60;;;3.80;99.90;;;;;;4230216;28;20478;-80
2023/11/24 07:29:07;;;;;;;12.50;2.07;;;3.80;99.90;;;;;;4242803;27;20433;-80
2023/11/24 07:31:08;;;;;;;13.30;2.23;;;3.80;99.90;;;;;;4245455;27;20951;-80
2023/11/24 07:33:12;;;;;;;13.67;2.60;;;3.80;99.90;;;;;;4235989;27;20983;-80
2023/11/24 07:35:14;;;;;;;17.13;2.10;;;3.80;99.90;;;;;;4238014;28;20437;-81
2023/11/24 07:37:17;;;;;;;7.37;1.87;;;3.90;99.90;;;;;;4236032;27;20454;-80
2023/11/24 07:39:20;;;;;;;15.47;1.87;;;3.90;99.90;;;;;;4242628;28;20473;-80
2023/11/24 07:41:22;;;;;;;16.87;2.10;;;3.90;99.90;;;;;;4219099;28;20489;-80
2023/11/24 07:43:23;;;;;;;14.60;2.47;;;3.90;99.90;;;;;;4237724;28;20437;-81
2023/11/24 07:45:26;;;;;;;15.07;2.17;;;4.00;99.90;;;;;;4241199;28;20450;-80
2023/11/24 07:47:28;;;;;;;8.90;2.10;;;4.00;99.90;;;;;;4237890;27;20467;-80
2023/11/24 07:49:31;;;;;;;12.70;2.50;;;4.00;99.90;;;;;;4240680;28;20442;-80
2023/11/24 07:51:33;;;;;;;14.77;2.37;;;4.00;99.90;;;;;;4241549;27;20447;-81
2023/11/24 07:53:35;;;;;;;24.03;2.20;;;4.10;99.90;;;;;;4226032;28;20459;-80
2023/11/24 07:55:36;;;;;;;16.50;2.20;;;4.10;99.90;;;;;;4244475;28;20450;-80
2023/11/24 07:57:38;;;;;;;13.80;2.07;;;4.10;99.90;;;;;;4216469;28;20483;-81
2023/11/24 07:59:39;;;;;;;13.60;1.80;;;4.10;99.90;;;;;;4241441;28;20526;-80
2023/11/24 08:01:41;;;;;;;13.33;2.00;;;4.20;99.90;;;;;;4237168;28;20426;-80
2023/11/24 08:03:44;;;;;;;15.37;1.97;;;4.20;99.90;;;;;;4241741;27;20639;-80
2023/11/24 08:05:50;;;;;;;13.10;1.80;;;4.20;99.90;;;;;;4248163;27;20463;-80
2023/11/24 08:07:52;;;;;;;10.63;2.10;;;4.20;99.90;;;;;;4240588;27;20853;-80
2023/11/24 08:09:54;;;;;;;14.10;1.80;;;4.30;99.90;;;;;;4239585;28;20865;-80
2023/11/24 08:11:56;;;;;;;13.17;1.60;;;4.20;99.90;;;;;;4241762;27;20446;-80
2023/11/24 08:13:57;;;;;;;13.47;2.47;;;4.10;99.90;;;;;;4246964;27;20535;-80
2023/11/24 08:16:00;;;;;;;11.07;2.97;;;4.20;99.90;;;;;;4243978;27;20468;-80
2023/11/24 08:18:02;;;;;;;12.87;2.07;;;4.20;99.90;;;;;;4241919;27;20624;-79
2023/11/24 08:20:10;;;;;;;8.50;2.07;;;4.20;99.90;;;;;;4234753;27;20478;-80
2023/11/24 08:22:16;;;;;;;11.13;1.97;;;4.10;99.90;;;;;;4242176;27;20454;-80
2023/11/24 08:24:18;;;;;;;9.93;1.63;;;4.20;99.90;;;;;;4240203;27;20870;-79
2023/11/24 08:26:21;;;;;;;12.30;2.00;;;4.20;99.90;;;;;;4241635;27;20455;-79
2023/11/24 08:28:23;;;;;;;9.37;1.77;;;4.30;99.90;;;;;;4241087;27;20473;-79
2023/11/24 08:30:24;;;;;;;14.40;1.60;;;4.40;99.90;;;;;;4226043;27;20527;-80
2023/11/24 08:32:26;;;;;;;15.10;1.80;;;4.40;99.90;;;;;;4243688;27;20457;-79
2023/11/24 08:34:28;;;;;;;9.77;1.60;;;4.50;99.90;;;;;;4241993;27;20450;-79
2023/11/24 08:36:31;;;;;;;17.87;1.60;;;4.50;99.90;;;;;;4225542;28;20459;-80
2023/11/24 08:38:35;;;;;;;7.90;1.40;;;4.40;99.90;;;;;;4237410;27;20482;-79
2023/11/24 08:40:39;;;;;;;12.90;2.00;;;4.40;99.90;;;;;;4240179;27;20452;-78
2023/11/24 08:42:39;;;;;;;7.07;1.37;;;4.50;99.90;;;;;;4239807;27;20468;-78
2023/11/24 08:44:42;;;;;;;12.10;1.10;;;4.50;99.90;;;;;;4244168;27;21098;-78
2023/11/24 08:46:44;;;;;;;9.03;1.47;;;4.40;99.90;;;;;;4240609;27;20850;-80
2023/11/24 08:48:46;;;;;;;9.67;1.33;;;4.40;99.90;;;;;;4235912;27;20468;-79
2023/11/24 08:50:48;;;;;;;5.40;0.73;;;4.50;99.90;;;;;;4236934;27;20952;-79
2023/11/24 08:52:52;;;;;;;8.63;1.27;;;4.50;99.90;;;;;;4242924;27;20467;-79
2023/11/24 08:54:55;;;;;;;3.53;0.80;;;4.50;99.90;;;;;;4239424;27;20500;-79
2023/11/24 08:56:58;;;;;;;7.07;1.00;;;4.50;99.90;;;;;;4239008;27;20590;-79
2023/11/24 08:58:59;;;;;;;7.43;0.80;;;4.50;99.90;;;;;;4244471;27;20471;-79
2023/11/24 09:01:01;;;;;;;9.40;0.80;;;4.50;99.90;;;;;;4237750;27;20482;-79
2023/11/24 09:03:05;;;;;;;2.70;1.00;;;4.50;99.90;;;;;;4239254;27;20201;-79
2023/11/24 09:05:09;;;;;;;5.67;0.80;;;4.50;99.90;;;;;;4246347;27;20867;-79
2023/11/24 09:07:13;;;;;;;3.13;0.73;;;4.50;99.90;;;;;;4241522;27;20480;-79
2023/11/24 09:09:14;;;;;;;4.63;0.77;;;4.50;99.90;;;;;;4241363;27;20440;-80
2023/11/24 09:11:18;;;;;;;7.70;0.87;;;4.60;99.90;;;;;;4241233;27;21113;-79
2023/11/24 09:13:20;;;;;;;8.20;0.87;;;4.60;99.90;;;;;;4242836;27;20530;-79
2023/11/24 09:15:22;;;;;;;3.03;1.00;;;4.70;99.90;;;;;;4240651;27;20487;-79
2023/11/24 09:17:27;;;;;;;6.13;1.00;;;4.70;99.90;;;;;;4244921;27;20480;-80
2023/11/24 09:19:32;;;;;;;6.57;1.03;;;4.70;99.90;;;;;;4239698;27;20476;-79
2023/11/24 09:21:35;;;;;;;2.83;1.00;;;4.70;99.90;;;;;;4240991;27;21053;-78
2023/11/24 09:23:37;;;;;;;5.87;1.13;;;4.70;99.90;;;;;;4238348;27;20460;-78
2023/11/24 09:25:40;;;;;;;4.97;0.80;;;4.70;99.90;;;;;;4242570;27;20552;-79
2023/11/24 09:27:46;;;;;;;4.97;0.90;;;4.80;99.90;;;;;;4245396;27;20489;-78
2023/11/24 09:29:48;;;;;;;6.87;1.10;;;4.80;99.90;;;;;;4240081;27;20456;-79
2023/11/24 09:31:49;;;;;;;2.00;0.70;;;5.00;99.90;;;;;;4242620;27;20472;-79
2023/11/24 09:33:52;;;;;;;5.00;1.37;;;4.90;99.90;;;;;;4240652;27;20444;-79
2023/11/24 09:35:55;;;;;;;4.73;1.27;;;4.90;99.90;;;;;;4243091;27;20207;-78
2023/11/24 09:37:57;;;;;;;5.30;1.17;;;4.90;99.90;;;;;;4242104;27;21009;-79
2023/11/24 09:39:59;;;;;;;5.60;1.13;;;4.90;99.90;;;;;;4244969;27;20826;-79
2023/11/24 09:42:03;;;;;;;7.40;1.43;;;4.80;99.90;;;;;;4248109;27;20439;-79
2023/11/24 09:44:10;;;;;;;5.50;1.00;;;4.80;99.90;;;;;;4251148;27;20437;-79
2023/11/24 09:46:12;;;;;;;6.33;0.93;;;4.70;99.90;;;;;;4246673;27;20460;-79
2023/11/24 09:48:16;;;;;;;4.37;0.63;;;4.60;99.90;;;;;;4246763;27;20474;-80
2023/11/24 09:50:23;;;;;;;3.63;1.37;;;4.50;99.90;;;;;;4245355;27;20451;-78
2023/11/24 09:52:27;;;;;;;5.47;1.53;;;4.40;99.90;;;;;;4242019;27;20562;-79
2023/11/24 09:54:31;;;;;;;5.80;1.23;;;4.30;99.90;;;;;;4240284;27;20439;-79
2023/11/24 09:56:33;;;;;;;5.00;1.20;;;4.40;99.90;;;;;;4242530;27;20860;-79
2023/11/24 09:58:35;;;;;;;3.47;1.33;;;4.40;99.90;;;;;;4244737;27;20452;-79
2023/11/24 10:00:40;;;;;;;2.90;1.03;;;4.50;99.90;;;;;;4243417;27;20978;-79
2023/11/24 10:02:41;;;;;;;6.90;0.93;;;4.50;99.90;;;;;;4247297;27;20711;-81
2023/11/24 10:04:44;;;;;;;8.07;1.80;;;4.50;99.90;;;;;;4241427;27;20456;-80
2023/11/24 10:06:49;;;;;;;7.07;1.73;;;4.50;99.90;;;;;;4229914;27;20449;-79
2023/11/24 10:08:52;;;;;;;4.30;1.40;;;4.50;99.90;;;;;;4242527;27;20446;-82
2023/11/24 10:10:53;;;;;;;4.07;1.03;;;4.60;99.90;;;;;;4240489;27;20443;-79
2023/11/24 10:12:58;;;;;;;11.67;1.67;;;4.60;99.90;;;;;;4243563;27;20446;-79
2023/11/24 10:15:00;;;;;;;6.67;2.37;;;4.60;99.90;;;;;;4245546;27;20448;-81
2023/11/24 10:17:04;;;;;;;6.47;1.40;;;4.70;99.90;;;;;;4236816;27;21318;-87
2023/11/24 10:19:14;;;;;;;9.13;1.33;;;4.90;99.90;;;;;;4245458;27;20514;-78
2023/11/24 10:21:16;;;;;;;4.43;1.40;;;4.70;99.90;;;;;;4239441;27;20456;-78
2023/11/24 10:23:21;;;;;;;5.80;1.10;;;4.70;99.90;;;;;;4234855;27;20445;-79
2023/11/24 10:25:24;;;;;;;6.07;1.50;;;4.70;99.90;;;;;;4242552;27;21335;-79
2023/11/24 10:27:26;;;;;;;9.17;1.20;;;4.70;99.90;;;;;;4224192;28;21322;-78
2023/11/24 10:29:30;;;;;;;5.93;1.03;;;4.80;99.90;;;;;;4245772;27;20947;-83
2023/11/24 10:31:32;;;;;;;8.23;0.93;;;4.80;99.90;;;;;;4240349;27;20441;-79
2023/11/24 10:33:36;;;;;;;6.60;1.03;;;4.80;99.90;;;;;;4243375;27;20439;-78
2023/11/24 10:35:38;;;;;;;7.70;1.27;;;4.80;99.90;;;;;;4231365;27;21693;-78
2023/11/24 10:37:41;;;;;;;4.37;0.70;;;4.80;99.90;;;;;;4236891;27;21080;-79
2023/11/24 10:39:48;;;;;;;3.63;1.00;;;4.80;99.90;;;;;;4236845;27;20562;-79